createdAt,value
2022-08-04T00:00:37.204Z,92.74
2022-08-04T00:01:52.321Z,93.89
2022-08-04T00:03:19.654Z,93.98
2022-08-04T00:04:35.166Z,93.81
2022-08-04T00:05:55.825Z,94.71
2022-08-04T00:07:10.226Z,95.20
2022-08-04T00:08:27.651Z,95.15
2022-08-04T00:09:50.366Z,94.88
2022-08-04T00:10:55.844Z,94.85
2022-08-04T00:12:00.733Z,94.32
2022-08-04T00:13:04.131Z,94.08
2022-08-04T00:14:10.350Z,93.73
2022-08-04T00:15:16.473Z,93.58
2022-08-04T00:16:22.826Z,93.34
2022-08-04T00:17:31.457Z,93.25
2022-08-04T00:18:42.847Z,93.23
2022-08-04T00:19:51.214Z,93.03
2022-08-04T00:20:57.064Z,93.07
2022-08-04T00:22:03.337Z,92.93
2022-08-04T00:23:06.136Z,92.93
2022-08-04T00:24:13.073Z,92.83
2022-08-04T00:25:15.384Z,92.22
2022-08-04T00:26:19.976Z,92.09
2022-08-04T00:27:22.944Z,91.96
2022-08-04T00:28:26.791Z,91.58
2022-08-04T00:29:30.365Z,91.51
2022-08-04T00:30:33.118Z,91.55
2022-08-04T00:31:54.744Z,91.39
2022-08-04T00:32:41.218Z,91.24
2022-08-04T00:33:45.148Z,91.03
2022-08-04T00:34:49.088Z,91.22
2022-08-04T00:35:54.278Z,91.33
2022-08-04T00:36:57.492Z,91.11
2022-08-04T00:38:00.913Z,91.17
2022-08-04T00:39:03.238Z,91.18
2022-08-04T00:40:11.050Z,91.12
2022-08-04T00:41:31.898Z,90.72
2022-08-04T00:42:58.159Z,90.51
2022-08-04T00:43:51.928Z,90.67
2022-08-04T00:45:12.846Z,89.99
2022-08-04T00:46:48.111Z,89.81
2022-08-04T00:47:56.714Z,90.23
2022-08-04T00:49:20.384Z,90.98
2022-08-04T00:50:44.352Z,91.05
2022-08-04T00:52:31.639Z,91.12
2022-08-04T00:53:20.615Z,91.36
2022-08-04T00:54:48.623Z,91.04
2022-08-04T00:56:06.479Z,90.86
2022-08-04T00:57:34.025Z,90.64
2022-08-04T00:58:55.627Z,90.51
2022-08-04T01:00:07.372Z,90.42
2022-08-04T01:01:13.082Z,90.45
2022-08-04T01:04:03.621Z,90.57
2022-08-04T01:05:08.849Z,90.62
2022-08-04T01:06:31.295Z,90.61
2022-08-04T01:08:03.205Z,90.53
2022-08-04T01:09:27.527Z,90.53
2022-08-04T01:10:59.338Z,91.48
2022-08-04T01:12:14.083Z,91.97
2022-08-04T01:13:25.577Z,91.71
2022-08-04T01:14:46.375Z,91.56
2022-08-04T01:16:01.312Z,92.23
2022-08-04T01:17:19.154Z,92.36
2022-08-04T01:18:24.690Z,92.35
2022-08-04T01:19:50.082Z,92.75
2022-08-04T01:21:21.583Z,92.92
2022-08-04T01:22:32.924Z,92.78
2022-08-04T01:24:01.999Z,93.39
2022-08-04T01:25:43.126Z,93.27
2022-08-04T01:26:58.642Z,93.18
2022-08-04T01:28:13.311Z,93.26
2022-08-04T01:29:16.412Z,93.21
2022-08-04T01:30:19.347Z,93.16
2022-08-04T01:31:44.756Z,92.86
2022-08-04T01:32:52.255Z,92.78
2022-08-04T01:33:58.489Z,92.40
2022-08-04T01:35:05.600Z,92.34
2022-08-04T01:36:11.355Z,92.32
2022-08-04T01:37:33.853Z,92.44
2022-08-04T01:38:39.290Z,92.84
2022-08-04T01:39:50.784Z,92.97
2022-08-04T01:40:55.599Z,92.91
2022-08-04T01:41:59.858Z,92.54
2022-08-04T01:43:04.815Z,92.21
2022-08-04T01:44:09.339Z,91.97
2022-08-04T01:45:13.417Z,92.06
2022-08-04T01:46:17.936Z,92.48
2022-08-04T01:47:21.069Z,92.41
2022-08-04T01:48:26.352Z,92.45
2022-08-04T01:49:32.118Z,92.50
2022-08-04T01:50:36.495Z,92.72
2022-08-04T01:51:40.221Z,92.80
2022-08-04T01:52:47.692Z,92.46
2022-08-04T01:53:48.582Z,92.42
2022-08-04T01:54:51.035Z,91.84
2022-08-04T01:55:55.846Z,91.67
2022-08-04T01:56:59.564Z,91.53
2022-08-04T01:58:05.962Z,91.26
2022-08-04T01:59:08.664Z,91.44
2022-08-04T02:00:14.565Z,91.29
2022-08-04T02:01:17.873Z,91.46
2022-08-04T02:02:23.069Z,91.16
2022-08-04T02:04:18.469Z,91.10
2022-08-04T02:04:31.029Z,91.12
2022-08-04T02:06:02.394Z,91.05
2022-08-04T02:06:50.008Z,90.84
2022-08-04T02:08:20.127Z,90.64
2022-08-04T02:09:25.506Z,90.71
2022-08-04T02:10:31.304Z,90.87
2022-08-04T02:11:34.070Z,91.17
2022-08-04T02:12:56.597Z,91.38
2022-08-04T02:14:09.544Z,91.23
2022-08-04T02:15:21.912Z,91.28
2022-08-04T02:16:34.202Z,91.55
2022-08-04T02:17:58.467Z,91.64
2022-08-04T02:19:18.288Z,91.68
2022-08-04T02:20:26.420Z,91.42
2022-08-04T02:21:42.644Z,91.60
2022-08-04T02:22:42.249Z,91.69
2022-08-04T02:23:47.927Z,91.89
2022-08-04T02:24:53.604Z,91.44
2022-08-04T02:25:58.323Z,91.63
2022-08-04T02:27:02.626Z,91.76
2022-08-04T02:28:14.152Z,91.98
2022-08-04T02:29:22.253Z,91.47
2022-08-04T02:30:28.212Z,91.52
2022-08-04T02:31:39.737Z,91.56
2022-08-04T02:32:44.554Z,91.45
2022-08-04T02:33:50.238Z,91.13
2022-08-04T02:35:05.793Z,91.06
2022-08-04T02:36:11.854Z,91.31
2022-08-04T02:37:16.588Z,91.18
2022-08-04T02:38:42.344Z,91.82
2022-08-04T02:39:48.700Z,92.36
2022-08-04T02:40:52.490Z,92.63
2022-08-04T02:41:55.901Z,92.79
2022-08-04T02:43:00.192Z,92.70
2022-08-04T02:44:04.863Z,92.64
2022-08-04T02:45:09.880Z,92.69
2022-08-04T02:46:17.821Z,92.72
2022-08-04T02:47:24.456Z,93.00
2022-08-04T02:48:31.997Z,93.43
2022-08-04T02:49:37.295Z,93.70
2022-08-04T02:50:43.910Z,93.96
2022-08-04T02:51:52.296Z,94.31
2022-08-04T02:52:57.684Z,94.61
2022-08-04T02:54:02.525Z,94.60
2022-08-04T02:55:08.356Z,94.01
2022-08-04T02:56:13.482Z,94.37
2022-08-04T02:57:17.968Z,94.98
2022-08-04T02:58:21.389Z,95.02
2022-08-04T02:59:26.503Z,94.92
2022-08-04T03:00:29.690Z,94.84
2022-08-04T03:01:34.479Z,94.61
2022-08-04T03:02:55.620Z,94.30
2022-08-04T03:04:24.529Z,94.22
2022-08-04T03:05:50.204Z,94.43
2022-08-04T03:06:41.095Z,94.91
2022-08-04T03:07:49.456Z,95.40
2022-08-04T03:09:28.765Z,95.93
2022-08-04T03:11:01.812Z,96.27
2022-08-04T03:12:34.073Z,96.61
2022-08-04T03:13:51.747Z,97.07
2022-08-04T03:15:09.313Z,96.61
2022-08-04T03:16:38.816Z,96.17
2022-08-04T03:17:52.953Z,96.18
2022-08-04T03:19:22.642Z,96.21
2022-08-04T03:20:34.491Z,96.08
2022-08-04T03:21:57.022Z,96.14
2022-08-04T03:23:13.805Z,96.01
2022-08-04T03:24:27.804Z,95.60
2022-08-04T03:25:35.491Z,95.59
2022-08-04T03:27:00.002Z,95.34
2022-08-04T03:28:23.748Z,95.15
2022-08-04T03:29:36.442Z,95.05
2022-08-04T03:30:55.887Z,95.39
2022-08-04T03:32:19.870Z,95.32
2022-08-04T03:33:41.589Z,94.97
2022-08-04T03:34:56.429Z,94.81
2022-08-04T03:36:27.207Z,94.30
2022-08-04T03:37:55.291Z,94.32
2022-08-04T03:39:38.264Z,94.46
2022-08-04T03:41:03.921Z,94.63
2022-08-04T03:42:28.127Z,94.61
2022-08-04T03:43:58.404Z,94.65
2022-08-04T03:44:59.500Z,94.64
2022-08-04T03:46:05.209Z,95.06
2022-08-04T03:47:33.893Z,95.44
2022-08-04T03:48:53.440Z,95.45
2022-08-04T03:50:15.388Z,95.38
2022-08-04T03:51:35.500Z,95.14
2022-08-04T03:52:40.696Z,95.28
2022-08-04T03:53:48.792Z,94.62
2022-08-04T03:55:20.644Z,94.67
2022-08-04T03:56:35.332Z,94.22
2022-08-04T03:57:46.767Z,93.85
2022-08-04T03:59:11.300Z,93.63
2022-08-04T04:00:17.713Z,93.64
2022-08-04T04:02:02.018Z,92.49
2022-08-04T04:03:23.553Z,92.30
2022-08-04T04:04:25.603Z,92.30
2022-08-04T04:05:59.796Z,92.32
2022-08-04T04:07:09.972Z,92.82
2022-08-04T04:08:23.478Z,93.07
2022-08-04T04:10:04.046Z,93.40
2022-08-04T04:11:04.793Z,93.35
2022-08-04T04:13:43.193Z,93.53
2022-08-04T04:16:09.411Z,93.56
2022-08-04T04:19:33.556Z,93.11
2022-08-04T04:20:57.472Z,92.19
2022-08-04T04:22:12.431Z,92.03
2022-08-04T04:23:39.770Z,92.12
2022-08-04T04:25:18.986Z,92.14
2022-08-04T04:26:34.370Z,92.92
2022-08-04T04:27:48.647Z,93.06
2022-08-04T04:29:06.734Z,93.17
2022-08-04T04:30:22.824Z,93.08
2022-08-04T04:31:28.566Z,92.94
2022-08-04T04:32:55.436Z,93.53
2022-08-04T04:34:22.556Z,93.75
2022-08-04T04:35:37.362Z,93.60
2022-08-04T04:36:57.891Z,93.30
2022-08-04T04:38:23.590Z,92.90
2022-08-04T04:39:41.624Z,92.53
2022-08-04T04:40:50.247Z,92.29
2022-08-04T04:42:15.245Z,92.40
2022-08-04T04:43:51.086Z,93.30
2022-08-04T04:44:38.371Z,93.37
2022-08-04T04:45:56.461Z,93.32
2022-08-04T04:47:43.069Z,93.05
2022-08-04T04:49:02.882Z,92.80
2022-08-04T04:50:36.761Z,93.11
2022-08-04T04:51:52.514Z,93.28
2022-08-04T04:53:01.168Z,93.23
2022-08-04T04:54:31.299Z,93.59
2022-08-04T04:55:49.414Z,93.59
2022-08-04T04:57:19.284Z,93.53
2022-08-04T04:58:23.464Z,93.51
2022-08-04T04:59:29.157Z,93.44
2022-08-04T05:00:56.192Z,93.61
2022-08-04T05:02:17.551Z,93.31
2022-08-04T05:03:42.937Z,92.95
2022-08-04T05:05:05.745Z,92.89
2022-08-04T05:06:21.168Z,93.22
2022-08-04T05:07:38.903Z,93.14
2022-08-04T05:09:07.728Z,92.99
2022-08-04T05:10:44.534Z,92.94
2022-08-04T05:14:32.957Z,92.82
2022-08-04T05:14:35.306Z,92.34
2022-08-04T05:14:35.800Z,91.99
2022-08-04T05:15:36.533Z,91.73
2022-08-04T05:16:49.656Z,91.84
2022-08-04T05:17:54.774Z,91.84
2022-08-04T05:19:03.390Z,91.42
2022-08-04T05:20:18.141Z,91.33
2022-08-04T05:21:23.996Z,91.24
2022-08-04T05:22:32.917Z,90.89
2022-08-04T05:23:38.592Z,90.61
2022-08-04T05:24:44.081Z,90.17
2022-08-04T05:26:00.136Z,90.07
2022-08-04T05:27:06.419Z,89.62
2022-08-04T05:28:19.120Z,89.62
2022-08-04T05:29:32.018Z,88.98
2022-08-04T05:30:40.740Z,88.99
2022-08-04T05:31:46.438Z,89.05
2022-08-04T05:32:52.002Z,88.92
2022-08-04T05:34:08.208Z,88.73
2022-08-04T05:35:14.051Z,88.26
2022-08-04T05:36:39.944Z,88.05
2022-08-04T05:37:30.446Z,87.32
2022-08-04T05:38:38.967Z,87.41
2022-08-04T05:39:47.971Z,87.40
2022-08-04T05:40:51.871Z,87.27
2022-08-04T05:41:58.535Z,86.63
2022-08-04T05:43:01.508Z,86.73
2022-08-04T05:44:04.447Z,86.74
2022-08-04T05:45:08.343Z,87.28
2022-08-04T05:46:13.398Z,87.72
2022-08-04T05:47:16.556Z,87.77
2022-08-04T05:48:19.802Z,87.91
2022-08-04T05:49:23.567Z,87.93
2022-08-04T05:50:26.754Z,87.42
2022-08-04T05:51:29.991Z,87.65
2022-08-04T05:52:33.987Z,87.54
2022-08-04T05:53:38.083Z,87.28
2022-08-04T05:54:42.242Z,87.52
2022-08-04T05:55:48.770Z,87.60
2022-08-04T05:56:52.942Z,87.52
2022-08-04T05:57:59.461Z,87.30
2022-08-04T05:59:03.661Z,87.27
2022-08-04T06:00:31.845Z,87.13
2022-08-04T06:01:14.165Z,87.40
2022-08-04T06:02:19.073Z,87.28
2022-08-04T06:03:23.322Z,87.18
2022-08-04T06:04:34.892Z,87.08
2022-08-04T06:05:40.577Z,86.97
2022-08-04T06:06:44.697Z,87.25
2022-08-04T06:08:12.583Z,86.20
2022-08-04T06:08:52.118Z,86.37
2022-08-04T06:09:55.508Z,86.49
2022-08-04T06:11:01.081Z,86.07
2022-08-04T06:12:09.474Z,85.28
2022-08-04T06:13:46.746Z,84.89
2022-08-04T06:14:22.564Z,84.96
2022-08-04T06:15:27.122Z,84.97
2022-08-04T06:16:39.930Z,85.29
2022-08-04T06:18:58.529Z,85.85
2022-08-04T06:20:03.708Z,86.40
2022-08-04T06:20:19.985Z,86.72
2022-08-04T06:21:24.336Z,87.59
2022-08-04T06:22:28.554Z,87.70
2022-08-04T06:23:34.342Z,87.58
2022-08-04T06:24:41.259Z,87.13
2022-08-04T06:25:53.114Z,86.83
2022-08-04T06:26:57.707Z,86.94
2022-08-04T06:28:04.156Z,86.87
2022-08-04T06:29:08.533Z,86.83
2022-08-04T06:30:12.274Z,86.86
2022-08-04T06:32:28.973Z,86.70
2022-08-04T06:32:30.011Z,86.62
2022-08-04T06:33:27.150Z,86.13
2022-08-04T06:34:32.162Z,85.97
2022-08-04T06:35:35.131Z,86.56
2022-08-04T06:36:39.026Z,86.91
2022-08-04T06:37:44.322Z,86.80
2022-08-04T06:38:47.558Z,86.91
2022-08-04T06:39:52.816Z,86.75
2022-08-04T06:40:58.441Z,86.80
2022-08-04T06:42:17.557Z,87.27
2022-08-04T06:43:08.295Z,87.18
2022-08-04T06:44:14.032Z,86.97
2022-08-04T06:45:19.997Z,86.83
2022-08-04T06:46:23.225Z,86.31
2022-08-04T06:47:27.358Z,87.05
2022-08-04T06:48:33.517Z,87.23
2022-08-04T06:49:44.169Z,86.90
2022-08-04T06:51:24.372Z,87.71
2022-08-04T06:51:51.981Z,87.57
2022-08-04T06:52:54.129Z,87.27
2022-08-04T06:53:56.487Z,87.07
2022-08-04T06:54:58.789Z,87.09
2022-08-04T06:56:01.998Z,86.78
2022-08-04T06:57:04.814Z,86.64
2022-08-04T06:58:09.000Z,87.51
2022-08-04T06:59:14.110Z,87.51
2022-08-04T07:00:17.505Z,87.48
2022-08-04T07:01:21.144Z,87.24
2022-08-04T07:02:30.156Z,86.88
2022-08-04T07:03:32.712Z,86.89
2022-08-04T07:04:34.856Z,87.23
2022-08-04T07:05:37.904Z,86.98
2022-08-04T07:06:41.600Z,86.76
2022-08-04T07:07:56.905Z,86.81
2022-08-04T07:08:50.317Z,86.46
2022-08-04T07:09:54.029Z,85.81
2022-08-04T07:10:58.745Z,85.83
2022-08-04T07:12:02.310Z,85.99
2022-08-04T07:13:06.139Z,85.55
2022-08-04T07:14:08.997Z,86.21
2022-08-04T07:15:14.355Z,85.85
2022-08-04T07:16:19.958Z,85.30
2022-08-04T07:17:23.147Z,84.83
2022-08-04T07:18:27.895Z,84.29
2022-08-04T07:19:31.542Z,84.15
2022-08-04T07:20:36.316Z,84.17
2022-08-04T07:21:39.299Z,83.20
2022-08-04T07:22:44.060Z,83.20
2022-08-04T07:23:46.870Z,84.10
2022-08-04T07:24:52.579Z,83.58
2022-08-04T07:26:11.367Z,82.99
2022-08-04T07:27:03.218Z,83.39
2022-08-04T07:28:05.382Z,83.14
2022-08-04T07:29:08.271Z,83.11
2022-08-04T07:30:11.900Z,82.69
2022-08-04T07:31:34.470Z,82.58
2022-08-04T07:32:22.623Z,82.44
2022-08-04T07:33:26.195Z,81.99
2022-08-04T07:34:29.591Z,81.55
2022-08-04T07:36:10.583Z,81.37
2022-08-04T07:36:50.375Z,82.00
2022-08-04T07:37:45.296Z,82.08
2022-08-04T07:38:50.946Z,81.91
2022-08-04T07:39:51.794Z,81.39
2022-08-04T07:40:55.127Z,81.11
2022-08-04T07:42:01.118Z,81.04
2022-08-04T07:43:05.196Z,80.94
2022-08-04T07:44:08.643Z,82.42
2022-08-04T07:45:11.278Z,82.97
2022-08-04T07:46:16.349Z,82.94
2022-08-04T07:47:24.875Z,82.51
2022-08-04T07:48:23.477Z,82.23
2022-08-04T07:49:57.302Z,81.63
2022-08-04T07:50:32.271Z,81.45
2022-08-04T07:51:36.804Z,81.36
2022-08-04T07:52:40.062Z,81.05
2022-08-04T07:53:52.909Z,81.36
2022-08-04T07:54:49.862Z,80.93
2022-08-04T07:55:53.500Z,81.14
2022-08-04T07:56:56.821Z,81.22
2022-08-04T07:57:59.729Z,80.76
2022-08-04T07:59:02.597Z,80.85
2022-08-04T08:00:06.761Z,80.47
2022-08-04T08:01:12.805Z,79.43
2022-08-04T08:02:15.963Z,80.67
2022-08-04T08:03:21.625Z,80.85
2022-08-04T08:04:23.753Z,81.17
2022-08-04T08:05:27.009Z,80.48
2022-08-04T08:06:32.028Z,80.48
2022-08-04T08:07:33.798Z,80.03
2022-08-04T08:08:40.633Z,79.63
2022-08-04T08:09:42.953Z,78.15
2022-08-04T08:10:47.160Z,78.40
2022-08-04T08:12:36.854Z,77.86
2022-08-04T08:12:56.995Z,77.00
2022-08-04T08:14:00.987Z,77.30
2022-08-04T08:15:05.162Z,77.12
2022-08-04T08:16:10.705Z,75.86
2022-08-04T08:17:13.568Z,75.92
2022-08-04T08:18:16.285Z,74.71
2022-08-04T08:19:18.848Z,74.06
2022-08-04T08:20:29.383Z,73.55
2022-08-04T08:21:27.149Z,73.16
2022-08-04T08:22:31.582Z,72.86
2022-08-04T08:23:35.771Z,72.94
2022-08-04T08:24:38.416Z,72.79
2022-08-04T08:25:40.733Z,72.67
2022-08-04T08:26:43.226Z,72.27
2022-08-04T08:27:56.032Z,72.12
2022-08-04T08:28:49.849Z,72.24
2022-08-04T08:29:52.689Z,72.35
2022-08-04T08:30:56.026Z,72.97
2022-08-04T08:32:07.889Z,72.20
2022-08-04T08:33:08.805Z,72.10
2022-08-04T08:34:12.394Z,71.06
2022-08-04T08:35:17.004Z,71.01
2022-08-04T08:36:39.853Z,70.61
2022-08-04T08:37:46.013Z,70.09
2022-08-04T08:39:04.090Z,69.97
2022-08-04T08:40:16.074Z,69.26
2022-08-04T08:41:42.860Z,70.09
2022-08-04T08:44:05.153Z,70.83
2022-08-04T08:44:51.415Z,70.71
2022-08-04T08:46:10.164Z,71.15
2022-08-04T08:47:25.184Z,71.01
2022-08-04T08:48:50.505Z,70.46
2022-08-04T08:50:21.043Z,67.92
2022-08-04T08:51:47.495Z,68.19
2022-08-04T08:52:55.330Z,67.86
2022-08-04T08:54:14.391Z,66.34
2022-08-04T08:55:29.275Z,65.60
2022-08-04T08:57:07.128Z,65.37
2022-08-04T08:58:19.034Z,65.50
2022-08-04T08:59:27.641Z,64.92
2022-08-04T09:01:03.734Z,65.55
2022-08-04T09:02:42.837Z,65.96
2022-08-04T09:03:57.847Z,66.48
2022-08-04T09:05:15.917Z,66.27
2022-08-04T09:06:40.960Z,66.66
2022-08-04T09:08:05.556Z,66.45
2022-08-04T09:10:48.585Z,66.08
2022-08-04T09:12:07.628Z,66.09
2022-08-04T09:13:25.632Z,66.07
2022-08-04T09:14:46.973Z,65.64
2022-08-04T09:16:26.094Z,65.83
2022-08-04T09:17:34.507Z,65.56
2022-08-04T09:18:42.837Z,65.50
2022-08-04T09:19:51.382Z,64.57
2022-08-04T09:20:57.277Z,65.01
2022-08-04T09:22:15.051Z,65.03
2022-08-04T09:23:35.286Z,63.34
2022-08-04T09:24:49.775Z,64.28
2022-08-04T09:27:23.563Z,64.38
2022-08-04T09:28:52.200Z,64.35
2022-08-04T09:29:36.482Z,64.35
2022-08-04T09:30:45.134Z,64.64
2022-08-04T09:32:07.381Z,64.73
2022-08-04T09:33:45.746Z,65.58
2022-08-04T09:34:48.161Z,65.57
2022-08-04T09:36:00.462Z,65.96
2022-08-04T09:37:06.863Z,65.36
2022-08-04T09:38:30.969Z,65.50
2022-08-04T09:39:52.997Z,65.93
2022-08-04T09:40:59.988Z,65.65
2022-08-04T09:42:19.544Z,65.48
2022-08-04T09:44:42.937Z,65.01
2022-08-04T09:44:56.227Z,66.49
2022-08-04T09:46:02.450Z,65.72
2022-08-04T09:47:23.407Z,63.95
2022-08-04T09:48:41.565Z,64.40
2022-08-04T09:49:47.219Z,64.33
2022-08-04T09:50:56.122Z,63.95
2022-08-04T09:52:08.705Z,63.38
2022-08-04T09:53:31.261Z,62.86
2022-08-04T09:54:46.907Z,62.55
2022-08-04T09:56:03.578Z,62.77
2022-08-04T09:57:32.319Z,62.52
2022-08-04T09:58:57.748Z,61.98
2022-08-04T10:00:10.291Z,62.31
2022-08-04T10:01:23.700Z,62.86
2022-08-04T10:02:29.685Z,63.41
2022-08-04T10:03:38.493Z,63.75
2022-08-04T10:04:43.301Z,64.38
2022-08-04T10:06:11.898Z,64.59
2022-08-04T10:07:36.577Z,64.74
2022-08-04T10:08:44.946Z,64.77
2022-08-04T10:10:12.188Z,64.37
2022-08-04T10:11:23.627Z,63.56
2022-08-04T10:12:37.234Z,62.90
2022-08-04T10:13:49.020Z,62.84
2022-08-04T10:15:12.986Z,62.23
2022-08-04T10:16:41.869Z,62.58
2022-08-04T10:18:05.661Z,62.00
2022-08-04T10:19:32.664Z,62.08
2022-08-04T10:21:01.176Z,62.87
2022-08-04T10:22:30.753Z,62.58
2022-08-04T10:23:56.363Z,64.26
2022-08-04T10:26:03.662Z,65.06
2022-08-04T10:26:47.974Z,65.50
2022-08-04T10:27:53.761Z,66.02
2022-08-04T10:29:23.825Z,66.35
2022-08-04T10:30:29.061Z,66.80
2022-08-04T10:31:37.580Z,66.30
2022-08-04T10:33:00.830Z,65.77
2022-08-04T10:34:06.549Z,65.69
2022-08-04T10:35:15.057Z,63.64
2022-08-04T10:36:22.542Z,63.38
2022-08-04T10:37:59.158Z,62.02
2022-08-04T10:38:47.287Z,62.08
2022-08-04T10:39:56.826Z,60.69
2022-08-04T10:41:32.989Z,60.08
2022-08-04T10:42:38.707Z,60.13
2022-08-04T10:44:16.463Z,59.76
2022-08-04T10:45:22.294Z,59.26
2022-08-04T10:46:28.246Z,60.45
2022-08-04T10:47:34.946Z,61.07
2022-08-04T10:49:01.540Z,61.04
2022-08-04T10:50:06.980Z,60.97
2022-08-04T10:51:58.975Z,60.88
2022-08-04T10:52:46.821Z,60.11
2022-08-04T10:53:55.326Z,59.87
2022-08-04T10:55:05.353Z,59.89
2022-08-04T10:56:17.377Z,58.94
2022-08-04T10:57:41.841Z,58.78
2022-08-04T10:58:50.322Z,58.11
2022-08-04T11:02:00.893Z,58.08
2022-08-04T11:02:36.874Z,58.53
2022-08-04T11:03:45.506Z,58.27
2022-08-04T11:05:07.341Z,57.66
2022-08-04T11:06:10.874Z,56.63
2022-08-04T11:07:15.110Z,56.14
2022-08-04T11:08:21.751Z,55.28
2022-08-04T11:09:25.143Z,55.74
2022-08-04T11:10:30.351Z,55.89
2022-08-04T11:11:57.154Z,56.26
2022-08-04T11:12:47.303Z,55.95
2022-08-04T11:14:14.511Z,56.42
2022-08-04T11:15:23.673Z,55.93
2022-08-04T11:16:50.774Z,56.72
2022-08-04T11:18:02.426Z,57.01
2022-08-04T11:19:45.015Z,57.18
2022-08-04T11:20:52.993Z,57.06
2022-08-04T11:22:06.272Z,57.48
2022-08-04T11:23:13.281Z,58.10
2022-08-04T11:25:59.539Z,59.43
2022-08-04T11:27:05.371Z,59.48
2022-08-04T11:28:36.876Z,59.01
2022-08-04T11:30:01.928Z,58.37
2022-08-04T11:31:19.671Z,57.80
2022-08-04T11:32:26.201Z,58.09
2022-08-04T11:33:48.497Z,57.35
2022-08-04T11:34:54.365Z,56.98
2022-08-04T11:36:17.785Z,56.74
2022-08-04T11:37:26.962Z,54.92
2022-08-04T11:38:38.910Z,54.96
2022-08-04T11:39:47.514Z,54.24
2022-08-04T11:41:02.279Z,54.32
2022-08-04T11:42:18.534Z,54.41
2022-08-04T11:44:01.329Z,53.67
2022-08-04T11:44:51.068Z,51.72
2022-08-04T11:45:56.909Z,50.62
2022-08-04T11:47:02.819Z,50.75
2022-08-04T11:48:08.490Z,49.17
2022-08-04T11:49:30.603Z,50.04
2022-08-04T11:50:37.428Z,49.44
2022-08-04T11:51:42.512Z,50.23
2022-08-04T11:52:46.103Z,49.73
2022-08-04T11:53:50.000Z,49.83
2022-08-04T11:54:54.446Z,50.64
2022-08-04T11:56:09.195Z,51.65
2022-08-04T11:57:05.592Z,51.31
2022-08-04T11:58:07.745Z,52.48
2022-08-04T11:59:09.761Z,51.28
2022-08-04T12:00:17.154Z,52.25
2022-08-04T12:01:37.621Z,50.86
2022-08-04T12:03:01.741Z,50.91
2022-08-04T12:04:13.526Z,51.06
2022-08-04T12:05:32.319Z,50.73
2022-08-04T12:07:00.477Z,51.00
2022-08-04T12:08:01.407Z,51.44
2022-08-04T12:09:13.101Z,52.28
2022-08-04T12:10:41.463Z,54.25
2022-08-04T12:12:04.966Z,54.59
2022-08-04T12:13:13.817Z,55.48
2022-08-04T12:14:43.713Z,61.24
2022-08-04T12:16:04.480Z,67.37
2022-08-04T12:17:08.107Z,82.97
2022-08-04T12:18:19.546Z,88.82
2022-08-04T12:19:26.482Z,93.68
2022-08-04T12:20:41.047Z,96.72
2022-08-04T12:21:42.744Z,99.40
2022-08-04T12:22:50.708Z,100.00
2022-08-04T12:24:00.414Z,100.00
2022-08-04T12:25:04.550Z,100.00
2022-08-04T12:26:10.867Z,100.00
2022-08-04T12:27:19.827Z,100.00
2022-08-04T12:28:59.708Z,100.00
2022-08-04T12:29:41.463Z,100.00
2022-08-04T12:31:00.157Z,100.00
2022-08-04T12:31:59.051Z,100.00
2022-08-04T12:33:10.726Z,100.00
2022-08-04T12:34:21.098Z,100.00
2022-08-04T12:36:05.169Z,100.00
2022-08-04T12:37:11.904Z,100.00
2022-08-04T12:38:15.896Z,100.00
2022-08-04T12:39:22.951Z,100.00
2022-08-04T12:40:29.815Z,100.00
2022-08-04T12:41:35.582Z,100.00
2022-08-04T12:42:59.817Z,100.00
2022-08-04T12:44:36.420Z,100.00
2022-08-04T12:45:20.762Z,100.00
2022-08-04T12:46:27.279Z,100.00
2022-08-04T12:47:30.985Z,100.00
2022-08-04T12:48:36.345Z,100.00
2022-08-04T12:49:42.149Z,100.00
2022-08-04T12:50:49.943Z,100.00
2022-08-04T12:52:07.690Z,100.00
2022-08-04T12:53:03.343Z,100.00
2022-08-04T12:54:05.941Z,100.00
2022-08-04T12:55:12.083Z,100.00
2022-08-04T12:56:18.962Z,100.00
2022-08-04T12:57:24.135Z,100.00
2022-08-04T12:58:43.205Z,100.00
2022-08-04T12:59:45.401Z,100.00
2022-08-04T13:01:02.356Z,100.00
2022-08-04T13:02:11.964Z,100.00
2022-08-04T13:03:16.504Z,100.00
2022-08-04T13:04:29.171Z,100.00
2022-08-04T13:05:31.234Z,100.00
2022-08-04T13:06:36.523Z,100.00
2022-08-04T13:07:44.026Z,100.00
2022-08-04T13:08:47.237Z,100.00
2022-08-04T13:09:50.867Z,100.00
2022-08-04T13:10:56.601Z,100.00
2022-08-04T13:12:09.363Z,100.00
2022-08-04T13:13:18.493Z,100.00
2022-08-04T13:14:27.406Z,100.00
2022-08-04T13:15:28.057Z,100.00
2022-08-04T13:16:32.024Z,100.00
2022-08-04T13:17:52.176Z,100.00
2022-08-04T13:18:56.208Z,100.00
2022-08-04T13:19:58.443Z,100.00
2022-08-04T13:21:19.938Z,100.00
2022-08-04T13:22:29.300Z,100.00
2022-08-04T13:24:56.260Z,97.02
2022-08-04T13:26:42.822Z,95.86
2022-08-04T13:27:03.587Z,93.76
2022-08-04T13:28:03.526Z,95.06
2022-08-04T13:29:16.152Z,95.61
2022-08-04T13:30:21.161Z,96.02
2022-08-04T13:30:25.387Z,100.00
2022-08-04T13:31:25.765Z,94.00
2022-08-04T13:32:31.611Z,94.34
2022-08-04T13:33:37.161Z,93.22
2022-08-04T13:34:41.957Z,92.74
2022-08-04T13:35:54.768Z,93.87
2022-08-04T13:36:54.745Z,94.33
2022-08-04T13:37:57.870Z,92.42
2022-08-04T13:39:04.515Z,93.99
2022-08-04T13:40:11.534Z,93.61
2022-08-04T13:41:16.688Z,92.74
2022-08-04T13:42:21.070Z,94.21
2022-08-04T13:44:16.295Z,94.58
2022-08-04T13:44:34.063Z,94.33
2022-08-04T13:45:40.184Z,94.94
2022-08-04T13:46:50.725Z,95.20
2022-08-04T13:47:56.810Z,94.99
2022-08-04T13:50:21.702Z,94.44
2022-08-04T13:51:25.806Z,92.85
2022-08-04T13:52:29.685Z,93.85
2022-08-04T13:53:38.730Z,93.75
2022-08-04T13:54:43.535Z,93.28
2022-08-04T13:55:46.295Z,93.67
2022-08-04T13:56:52.091Z,93.16
2022-08-04T13:58:01.530Z,92.65
2022-08-04T13:59:07.234Z,92.71
2022-08-04T14:00:13.999Z,92.99
2022-08-04T14:01:19.503Z,90.17
2022-08-04T14:02:40.529Z,91.83
2022-08-04T14:03:53.326Z,92.39
2022-08-04T14:05:00.134Z,91.81
2022-08-04T14:06:08.924Z,93.32
2022-08-04T14:07:21.088Z,94.03
2022-08-04T14:08:29.050Z,94.28
2022-08-04T14:09:35.518Z,94.20
2022-08-04T14:10:39.625Z,94.35
2022-08-04T14:12:10.892Z,93.84
2022-08-04T14:12:52.518Z,93.63
2022-08-04T14:13:56.177Z,94.49
2022-08-04T14:14:58.596Z,94.11
2022-08-04T14:16:03.504Z,91.92
2022-08-04T14:17:20.358Z,90.81
2022-08-04T14:18:22.372Z,89.84
2022-08-04T14:19:31.008Z,90.27
2022-08-04T14:20:31.602Z,88.91
2022-08-04T14:21:35.772Z,89.99
2022-08-04T14:22:38.994Z,88.78
2022-08-04T14:23:50.099Z,88.39
2022-08-04T14:25:15.943Z,87.03
2022-08-04T14:26:33.403Z,88.25
2022-08-04T14:27:50.522Z,88.64
2022-08-04T14:29:09.520Z,87.71
2022-08-04T14:30:00.808Z,87.26
2022-08-04T14:31:11.943Z,87.19
2022-08-04T14:32:15.004Z,87.19
2022-08-04T14:34:03.003Z,86.49
2022-08-04T14:34:28.259Z,87.37
2022-08-04T14:35:49.231Z,88.24
2022-08-04T14:36:56.042Z,86.94
2022-08-04T14:37:55.822Z,87.91
2022-08-04T14:39:00.275Z,86.63
2022-08-04T14:40:18.608Z,87.83
2022-08-04T14:41:07.308Z,87.62
2022-08-04T14:42:11.580Z,87.72
2022-08-04T14:43:17.355Z,86.63
2022-08-04T14:44:20.640Z,86.65
2022-08-04T14:45:54.809Z,86.42
2022-08-04T14:46:54.092Z,87.70
2022-08-04T14:47:56.923Z,87.55
2022-08-04T14:49:11.645Z,88.03
2022-08-04T14:50:14.768Z,87.40
2022-08-04T14:51:16.989Z,86.32
2022-08-04T14:52:25.131Z,88.08
2022-08-04T14:53:27.347Z,87.85
2022-08-04T14:54:35.144Z,86.93
2022-08-04T14:55:39.890Z,88.33
2022-08-04T14:56:47.159Z,87.46
2022-08-04T14:58:33.866Z,86.90
2022-08-04T14:59:05.147Z,86.96
2022-08-04T15:00:11.853Z,86.09
2022-08-04T15:01:13.656Z,86.43
2022-08-04T15:02:16.554Z,86.51
2022-08-04T15:03:20.323Z,86.98
2022-08-04T15:04:25.824Z,85.96
2022-08-04T15:05:54.798Z,86.93
2022-08-04T15:06:34.310Z,87.39
2022-08-04T15:07:36.752Z,86.46
2022-08-04T15:08:45.544Z,86.90
2022-08-04T15:09:45.080Z,87.08
2022-08-04T15:10:47.140Z,88.10
2022-08-04T15:11:49.599Z,88.25
2022-08-04T15:12:52.987Z,87.83
2022-08-04T15:13:57.855Z,88.65
2022-08-04T15:15:20.218Z,88.25
2022-08-04T15:16:07.018Z,88.18
2022-08-04T15:17:29.276Z,88.35
2022-08-04T15:18:13.195Z,87.57
2022-08-04T15:19:16.062Z,87.36
2022-08-04T15:20:19.149Z,87.99
2022-08-04T15:21:23.147Z,86.19
2022-08-04T15:22:25.621Z,86.82
2022-08-04T15:23:37.248Z,85.50